Time;durP1;ratioP1;P1;durP2;ratioP2;P2;SDS_P1;SDS_P2;PMS_P1;PMS_P2;Temp;Humidity;BMP_temperature;BMP_pressure;BME280_temperature;BME280_humidity;BME280_pressure;Samples;Min_cycle;Max_cycle;Signal;HPM_P1;HPM_P2
2023/12/30 00:00:23;;;;;;;9.90;1.30;;;6.90;1.00;;;;;;5028939;28;20188;-53
2023/12/30 00:02:49;;;;;;;8.17;2.37;;;6.90;1.00;;;;;;5028958;28;20525;-53
2023/12/30 00:05:16;;;;;;;4.20;1.20;;;6.90;1.00;;;;;;5032937;28;20192;-53
2023/12/30 00:07:41;;;;;;;5.20;1.93;;;7.00;1.00;;;;;;5029208;28;20481;-53
2023/12/30 00:10:07;;;;;;;5.90;1.40;;;6.90;1.00;;;;;;5030399;28;21041;-53
2023/12/30 00:12:33;;;;;;;10.20;2.13;;;6.90;1.00;;;;;;5029271;28;20198;-52
2023/12/30 00:14:59;;;;;;;5.37;1.60;;;6.90;1.00;;;;;;5030078;28;20222;-53
2023/12/30 00:17:24;;;;;;;11.20;2.13;;;6.90;1.20;;;;;;5027299;28;20868;-53
2023/12/30 00:19:50;;;;;;;7.23;1.53;;;6.80;18.60;;;;;;5032892;28;20186;-53
2023/12/30 00:22:16;;;;;;;2.57;1.20;;;6.80;23.30;;;;;;5027695;28;20298;-53
2023/12/30 00:24:42;;;;;;;7.10;1.30;;;6.80;12.60;;;;;;5029454;28;20228;-53
2023/12/30 00:27:08;;;;;;;9.53;1.70;;;6.80;18.50;;;;;;5029970;28;20179;-53
2023/12/30 00:29:37;;;;;;;7.43;1.97;;;6.80;21.10;;;;;;5030095;28;20442;-53
2023/12/30 00:32:03;;;;;;;6.10;1.30;;;6.90;26.40;;;;;;5030411;28;20226;-53
2023/12/30 00:34:32;;;;;;;4.37;1.40;;;6.80;29.60;;;;;;5028952;28;20446;-53
2023/12/30 00:36:57;;;;;;;4.53;1.40;;;6.80;34.80;;;;;;5025132;28;20310;-53
2023/12/30 00:39:23;;;;;;;6.30;1.50;;;6.80;46.50;;;;;;5028777;28;20442;-53
2023/12/30 00:41:48;;;;;;;3.70;1.80;;;6.80;60.80;;;;;;5030074;28;20229;-53
2023/12/30 00:44:14;;;;;;;5.80;2.00;;;6.80;75.70;;;;;;5027005;28;20293;-53
2023/12/30 00:46:39;;;;;;;2.47;1.47;;;6.70;86.70;;;;;;5029901;28;20191;-53
2023/12/30 00:49:05;;;;;;;10.10;1.70;;;6.70;97.40;;;;;;5028753;28;20190;-53
2023/12/30 00:51:31;;;;;;;5.57;2.10;;;6.70;99.90;;;;;;5029326;28;20215;-53
2023/12/30 00:53:56;;;;;;;4.07;1.67;;;6.70;99.90;;;;;;5028036;28;20183;-53
2023/12/30 00:56:22;;;;;;;4.37;2.03;;;6.60;99.90;;;;;;5028878;28;20193;-53
2023/12/30 00:58:47;;;;;;;10.10;2.07;;;6.60;99.90;;;;;;5029430;28;20195;-53
2023/12/30 01:01:13;;;;;;;3.70;1.87;;;6.60;99.90;;;;;;5028336;28;20179;-53
2023/12/30 01:03:40;;;;;;;5.83;2.53;;;6.60;99.90;;;;;;5030023;28;20539;-53
2023/12/30 01:06:06;;;;;;;7.27;3.00;;;6.50;1.00;;;;;;5027856;28;20348;-53
2023/12/30 01:08:32;;;;;;;5.77;2.57;;;6.50;1.00;;;;;;5029377;28;20954;-53
2023/12/30 01:10:57;;;;;;;5.23;2.17;;;6.50;1.00;;;;;;5027784;28;20485;-53
2023/12/30 01:13:23;;;;;;;5.77;2.67;;;6.50;99.90;;;;;;5028729;28;20194;-53
2023/12/30 01:15:48;;;;;;;5.50;2.10;;;6.50;1.00;;;;;;5029414;28;20738;-53
2023/12/30 01:18:14;;;;;;;7.17;2.50;;;6.50;1.00;;;;;;5028161;28;20192;-53
2023/12/30 01:20:40;;;;;;;7.17;2.27;;;6.50;1.00;;;;;;5029830;28;20644;-53
2023/12/30 01:23:06;;;;;;;7.87;3.40;;;6.50;14.50;;;;;;5027365;28;20195;-53
2023/12/30 01:25:31;;;;;;;4.30;2.67;;;6.40;99.90;;;;;;5028650;28;20196;-53
2023/12/30 01:27:57;;;;;;;6.53;3.17;;;6.40;1.00;;;;;;5029739;28;20562;-53
2023/12/30 01:30:22;;;;;;;6.73;2.70;;;6.30;99.90;;;;;;5033259;28;20672;-53
2023/12/30 01:32:48;;;;;;;4.20;2.30;;;6.30;99.90;;;;;;5032739;28;20675;-53
2023/12/30 01:35:15;;;;;;;9.67;3.00;;;6.20;91.90;;;;;;5031914;28;20624;-53
2023/12/30 01:37:41;;;;;;;5.37;2.60;;;6.30;99.90;;;;;;5031508;28;20651;-53
2023/12/30 01:40:07;;;;;;;7.07;2.13;;;6.20;1.00;;;;;;5031950;28;20448;-53
2023/12/30 01:42:33;;;;;;;2.50;1.80;;;6.30;99.90;;;;;;5032710;28;20229;-54
2023/12/30 01:44:58;;;;;;;9.80;1.97;;;6.20;1.00;;;;;;5031455;28;20942;-53
2023/12/30 01:47:24;;;;;;;6.33;1.60;;;6.20;82.80;;;;;;5030612;28;20194;-53
2023/12/30 01:49:50;;;;;;;7.27;1.67;;;6.20;99.90;;;;;;5031582;28;20211;-53
2023/12/30 01:52:16;;;;;;;5.67;1.63;;;6.10;99.90;;;;;;5032048;28;20754;-53
2023/12/30 01:54:42;;;;;;;2.53;1.37;;;6.10;1.00;;;;;;5031499;28;20536;-53
2023/12/30 01:57:08;;;;;;;5.53;1.80;;;6.10;1.00;;;;;;5032258;28;20290;-53
2023/12/30 01:59:35;;;;;;;12.13;1.83;;;6.10;99.90;;;;;;5031812;28;20500;-53
2023/12/30 02:02:01;;;;;;;5.73;2.27;;;6.10;1.00;;;;;;5031384;28;20456;-53
2023/12/30 02:04:28;;;;;;;2.80;1.43;;;6.00;1.00;;;;;;5033113;28;20474;-53
2023/12/30 02:06:53;;;;;;;3.10;1.33;;;6.00;99.90;;;;;;5030484;28;20481;-52
2023/12/30 02:09:19;;;;;;;7.80;1.80;;;6.00;99.90;;;;;;5028924;28;21001;-52
2023/12/30 02:11:44;;;;;;;2.40;1.77;;;6.00;1.00;;;;;;5031142;28;20313;-53
2023/12/30 02:14:26;;;;;;;8.63;1.40;;;6.10;1.00;;;;;;5031877;28;20218;-52
2023/12/30 02:16:52;;;;;;;4.83;2.00;;;6.10;83.30;;;;;;5033184;28;20190;-52
2023/12/30 02:19:18;;;;;;;5.23;1.40;;;6.10;99.90;;;;;;5031055;28;20499;-53
2023/12/30 02:21:43;;;;;;;2.33;1.20;;;6.10;97.40;;;;;;5030887;28;20644;-52
2023/12/30 02:24:09;;;;;;;3.67;1.40;;;6.20;1.00;;;;;;5029651;28;20195;-53
2023/12/30 02:26:34;;;;;;;6.83;1.30;;;6.20;99.90;;;;;;5031221;28;20192;-52
2023/12/30 02:29:00;;;;;;;3.73;1.00;;;6.20;99.90;;;;;;5032230;28;20188;-52
2023/12/30 02:31:25;;;;;;;4.17;1.30;;;6.20;60.00;;;;;;5027846;28;20571;-53
2023/12/30 02:33:51;;;;;;;5.23;1.30;;;6.10;75.40;;;;;;5032444;28;20549;-52
2023/12/30 02:36:17;;;;;;;5.67;1.40;;;6.10;84.80;;;;;;5030503;28;20530;-52
2023/12/30 02:38:42;;;;;;;4.77;1.53;;;6.00;33.10;;;;;;5030988;28;20187;-53
2023/12/30 02:41:08;;;;;;;7.57;2.60;;;6.00;1.00;;;;;;5030216;28;20206;-52
2023/12/30 02:43:49;;;;;;;3.53;1.10;;;6.10;1.00;;;;;;5031620;28;20187;-53
2023/12/30 02:46:15;;;;;;;8.63;3.50;;;6.10;1.00;;;;;;5031244;28;20536;-52
2023/12/30 02:48:40;;;;;;;6.60;1.20;;;6.00;1.00;;;;;;5031114;28;20458;-52
2023/12/30 02:51:06;;;;;;;8.10;1.13;;;6.00;1.00;;;;;;5032217;28;20218;-52
2023/12/30 02:53:31;;;;;;;6.20;1.40;;;6.00;1.00;;;;;;5029527;28;20206;-51
2023/12/30 02:55:57;;;;;;;3.50;1.00;;;5.90;1.00;;;;;;5030498;28;20195;-52
2023/12/30 02:58:22;;;;;;;8.73;1.20;;;5.90;1.00;;;;;;5030285;28;20196;-51
2023/12/30 03:00:48;;;;;;;5.17;1.40;;;5.90;1.00;;;;;;5031197;28;20184;-52
2023/12/30 03:03:13;;;;;;;5.57;1.80;;;5.90;1.00;;;;;;5030394;28;20230;-53
2023/12/30 03:05:39;;;;;;;5.63;1.03;;;5.90;1.00;;;;;;5030518;28;20195;-52
2023/12/30 03:08:05;;;;;;;7.40;1.30;;;5.80;1.00;;;;;;5032243;28;20231;-51
2023/12/30 03:10:30;;;;;;;3.23;1.23;;;5.80;1.00;;;;;;5029781;28;20257;-51
2023/12/30 03:12:56;;;;;;;8.10;1.50;;;5.80;1.00;;;;;;5031319;28;20537;-52
2023/12/30 03:15:21;;;;;;;4.85;1.10;;;5.80;1.00;;;;;;5027629;28;20563;-53
2023/12/30 03:17:47;;;;;;;3.43;1.50;;;5.80;1.00;;;;;;5031270;28;20685;-53
2023/12/30 03:20:13;;;;;;;6.07;1.30;;;5.80;1.00;;;;;;5029061;28;20727;-53
2023/12/30 03:22:38;;;;;;;7.30;1.40;;;5.80;1.00;;;;;;5030623;28;20179;-53
2023/12/30 03:25:04;;;;;;;5.07;1.10;;;5.90;1.00;;;;;;5030644;28;20263;-53
2023/12/30 03:27:30;;;;;;;3.27;1.03;;;5.80;1.00;;;;;;5029505;28;20183;-52
2023/12/30 03:29:55;;;;;;;10.10;1.73;;;5.90;1.00;;;;;;5031584;28;20817;-52
2023/12/30 03:32:21;;;;;;;6.17;1.50;;;5.90;1.00;;;;;;5027518;28;20650;-53
2023/12/30 03:34:46;;;;;;;4.47;1.63;;;5.80;1.00;;;;;;5031033;28;20628;-52
2023/12/30 03:37:12;;;;;;;7.47;1.50;;;5.80;1.00;;;;;;5028989;28;20544;-52
2023/12/30 03:39:37;;;;;;;3.77;0.90;;;5.70;1.00;;;;;;5031219;28;20559;-53
2023/12/30 03:42:03;;;;;;;5.50;1.63;;;5.70;1.00;;;;;;5028952;28;20671;-53
2023/12/30 03:44:29;;;;;;;9.87;1.40;;;5.70;1.00;;;;;;5030249;28;20187;-53
2023/12/30 03:46:55;;;;;;;9.60;1.40;;;5.70;1.00;;;;;;5030015;28;20227;-53
2023/12/30 03:49:20;;;;;;;8.33;1.67;;;5.70;18.50;;;;;;5029293;28;20687;-53
2023/12/30 03:51:46;;;;;;;2.70;1.30;;;5.70;5.00;;;;;;5029466;28;20318;-53
2023/12/30 03:54:11;;;;;;;7.20;1.83;;;5.80;1.00;;;;;;5029458;28;20176;-53
2023/12/30 03:56:40;;;;;;;6.23;1.37;;;5.80;1.00;;;;;;5030795;28;20183;-53
2023/12/30 03:59:06;;;;;;;5.70;1.20;;;5.80;1.00;;;;;;5028115;28;20202;-54
2023/12/30 04:01:31;;;;;;;5.80;1.40;;;5.80;1.00;;;;;;5028229;28;20450;-53
2023/12/30 04:03:57;;;;;;;8.00;1.77;;;5.90;1.00;;;;;;5028626;28;20179;-54
2023/12/30 04:06:22;;;;;;;9.20;1.43;;;5.90;1.00;;;;;;5028893;28;20246;-53
2023/12/30 04:08:48;;;;;;;8.40;1.53;;;6.00;1.00;;;;;;5027628;28;20190;-53
2023/12/30 04:11:13;;;;;;;9.37;2.30;;;6.10;1.00;;;;;;5029065;28;20315;-53
2023/12/30 04:13:39;;;;;;;8.80;2.07;;;6.10;1.00;;;;;;5029894;28;20206;-53
2023/12/30 04:16:06;;;;;;;10.13;1.53;;;6.10;1.00;;;;;;5027556;28;20223;-53
2023/12/30 04:18:31;;;;;;;8.40;1.97;;;6.10;1.00;;;;;;5029171;28;20674;-53
2023/12/30 04:20:57;;;;;;;7.17;1.83;;;6.10;99.90;;;;;;5026656;28;20450;-53
2023/12/30 04:23:24;;;;;;;5.50;1.67;;;6.10;99.90;;;;;;5030453;28;20184;-53
2023/12/30 04:25:49;;;;;;;4.20;1.00;;;6.00;1.00;;;;;;5029316;28;20185;-53
2023/12/30 04:28:15;;;;;;;17.50;1.57;;;5.90;9.50;;;;;;5027264;28;20525;-54
2023/12/30 04:30:40;;;;;;;8.47;2.00;;;5.90;99.90;;;;;;5029332;28;20207;-53
2023/12/30 04:33:06;;;;;;;6.50;1.70;;;5.90;99.90;;;;;;5028236;28;20237;-53
2023/12/30 04:35:32;;;;;;;6.70;1.57;;;5.80;1.00;;;;;;5030236;28;20225;-53
2023/12/30 04:37:57;;;;;;;11.27;1.77;;;5.90;99.90;;;;;;5028356;28;20194;-53
2023/12/30 04:40:23;;;;;;;7.57;1.90;;;5.90;99.90;;;;;;5029363;28;20183;-53
2023/12/30 04:42:48;;;;;;;10.70;1.87;;;5.90;1.00;;;;;;5027019;28;20184;-53
2023/12/30 04:45:14;;;;;;;10.20;1.83;;;6.00;99.90;;;;;;5030097;28;20195;-53
2023/12/30 04:47:39;;;;;;;7.87;2.73;;;6.10;1.00;;;;;;5026365;28;20187;-53
2023/12/30 04:50:05;;;;;;;6.60;1.80;;;6.10;1.00;;;;;;5027567;28;20218;-53
2023/12/30 04:52:31;;;;;;;9.67;1.83;;;6.10;99.90;;;;;;5028751;28;20223;-53
2023/12/30 04:54:56;;;;;;;3.67;1.30;;;6.10;99.90;;;;;;5027927;28;20434;-53
2023/12/30 04:57:22;;;;;;;5.17;1.80;;;6.10;99.90;;;;;;5028121;28;20191;-53
2023/12/30 04:59:47;;;;;;;6.97;1.70;;;6.10;99.90;;;;;;5027370;28;20195;-53
2023/12/30 05:02:13;;;;;;;5.53;1.60;;;6.10;1.00;;;;;;5031552;28;20230;-53
2023/12/30 05:04:42;;;;;;;7.17;1.73;;;6.20;99.90;;;;;;5031797;28;20918;-53
2023/12/30 05:07:08;;;;;;;11.93;1.87;;;6.20;99.90;;;;;;5031230;28;20242;-53
2023/12/30 05:09:36;;;;;;;8.40;2.00;;;6.20;1.00;;;;;;5031765;28;20479;-53
2023/12/30 05:12:02;;;;;;;8.40;2.13;;;6.20;1.00;;;;;;5031727;28;20766;-53
2023/12/30 05:14:27;;;;;;;10.13;2.00;;;6.20;99.90;;;;;;5034053;28;20524;-53
2023/12/30 05:16:53;;;;;;;7.53;1.57;;;6.20;1.00;;;;;;5031873;28;20202;-52
2023/12/30 05:19:19;;;;;;;10.90;1.53;;;6.20;1.00;;;;;;5032718;28;20227;-53
2023/12/30 05:21:50;;;;;;;10.07;2.10;;;6.20;1.00;;;;;;5030559;28;20203;-53
2023/12/30 05:24:16;;;;;;;9.70;2.60;;;6.10;1.00;;;;;;5033142;28;20210;-53
2023/12/30 05:26:41;;;;;;;6.07;2.33;;;6.20;1.00;;;;;;5032513;28;20945;-53
2023/12/30 05:29:07;;;;;;;9.23;1.63;;;6.20;1.00;;;;;;5032260;28;20281;-53
2023/12/30 05:31:32;;;;;;;14.50;2.30;;;6.10;1.00;;;;;;5033124;28;20307;-53
2023/12/30 05:33:58;;;;;;;10.67;2.33;;;6.10;1.00;;;;;;5029369;28;20199;-54
2023/12/30 05:36:23;;;;;;;13.50;1.97;;;6.10;1.00;;;;;;5031231;28;20194;-53
2023/12/30 05:38:49;;;;;;;15.43;2.30;;;6.20;1.00;;;;;;5032458;28;21370;-53
2023/12/30 05:41:15;;;;;;;11.70;2.47;;;6.20;1.00;;;;;;5033383;28;20207;-53
2023/12/30 05:43:41;;;;;;;9.23;2.20;;;6.20;99.90;;;;;;5031259;28;20210;-53
2023/12/30 05:46:07;;;;;;;3.30;1.57;;;6.20;99.90;;;;;;5030451;28;20191;-53
2023/12/30 05:48:32;;;;;;;7.77;1.90;;;6.20;99.90;;;;;;5031833;28;20449;-53
2023/12/30 05:50:58;;;;;;;9.47;2.20;;;6.20;99.90;;;;;;5033732;28;20213;-53
2023/12/30 05:53:23;;;;;;;10.40;2.13;;;6.20;99.90;;;;;;5031862;28;20194;-53
2023/12/30 05:55:51;;;;;;;11.47;1.90;;;6.20;99.90;;;;;;5031160;28;20187;-53
2023/12/30 05:58:17;;;;;;;8.10;2.00;;;6.20;99.90;;;;;;5032940;28;20214;-53
2023/12/30 06:00:42;;;;;;;18.10;1.57;;;6.20;99.90;;;;;;5030875;28;20873;-53
2023/12/30 06:03:08;;;;;;;16.00;1.73;;;6.20;99.90;;;;;;5031412;28;20249;-53
2023/12/30 06:05:33;;;;;;;12.77;1.70;;;6.20;99.90;;;;;;5031032;28;20588;-53
2023/12/30 06:07:59;;;;;;;5.57;1.77;;;6.20;99.90;;;;;;5029997;28;20234;-53
2023/12/30 06:10:24;;;;;;;12.57;1.73;;;6.20;99.90;;;;;;5032405;28;20289;-53
2023/12/30 06:12:50;;;;;;;7.33;1.67;;;6.30;94.50;;;;;;5029724;28;20251;-53
2023/12/30 06:15:16;;;;;;;10.93;2.00;;;6.30;8.90;;;;;;5031594;28;20201;-52
2023/12/30 06:17:42;;;;;;;10.10;2.10;;;6.30;85.10;;;;;;5030292;28;20856;-53
2023/12/30 06:20:10;;;;;;;5.80;2.23;;;6.30;99.90;;;;;;5031595;28;20433;-52
2023/12/30 06:22:35;;;;;;;11.47;2.03;;;6.30;39.30;;;;;;5030021;28;20203;-52
2023/12/30 06:25:01;;;;;;;9.50;1.67;;;6.30;18.30;;;;;;5028497;28;20496;-52
2023/12/30 06:27:26;;;;;;;7.03;1.77;;;6.30;66.50;;;;;;5030797;28;20194;-52
2023/12/30 06:29:52;;;;;;;11.40;2.33;;;6.30;23.10;;;;;;5030380;28;20203;-54
2023/12/30 06:32:17;;;;;;;6.90;1.97;;;6.40;5.00;;;;;;5031930;28;20227;-53
2023/12/30 06:34:43;;;;;;;7.73;1.87;;;6.30;1.00;;;;;;5029970;28;20194;-53
2023/12/30 06:37:08;;;;;;;12.33;1.63;;;6.30;1.00;;;;;;5032030;28;20179;-53
2023/12/30 06:39:34;;;;;;;10.27;2.10;;;6.30;1.00;;;;;;5031139;28;20199;-53
2023/12/30 06:42:00;;;;;;;14.40;2.47;;;6.40;1.00;;;;;;5029785;28;20245;-53
2023/12/30 06:44:26;;;;;;;12.80;2.23;;;6.40;1.00;;;;;;5030651;28;20562;-53
2023/12/30 06:46:52;;;;;;;5.67;1.77;;;6.30;1.00;;;;;;5032372;28;20278;-54
2023/12/30 06:49:17;;;;;;;9.77;1.93;;;6.40;1.00;;;;;;5030375;28;20184;-52
2023/12/30 06:51:43;;;;;;;7.90;1.90;;;6.40;1.00;;;;;;5029512;28;20487;-53
2023/12/30 06:54:08;;;;;;;7.63;2.00;;;6.40;1.00;;;;;;5030245;28;20195;-53
2023/12/30 06:56:34;;;;;;;6.23;1.57;;;6.40;1.00;;;;;;5029573;28;20176;-53
2023/12/30 06:59:00;;;;;;;7.80;1.60;;;6.30;1.00;;;;;;5029870;28;20197;-53
2023/12/30 07:01:25;;;;;;;8.47;2.20;;;6.30;1.00;;;;;;5026840;28;20648;-53
2023/12/30 07:03:51;;;;;;;11.27;2.27;;;6.40;1.00;;;;;;5028931;28;20234;-53
2023/12/30 07:06:17;;;;;;;7.10;1.80;;;6.40;1.00;;;;;;5027665;28;20782;-52
2023/12/30 07:08:43;;;;;;;11.50;1.73;;;6.30;1.00;;;;;;5031200;28;20577;-53
2023/12/30 07:11:08;;;;;;;8.03;2.33;;;6.40;1.00;;;;;;5030032;28;20238;-53
2023/12/30 07:13:34;;;;;;;15.37;2.40;;;6.30;1.10;;;;;;5030785;28;20280;-54
2023/12/30 07:15:59;;;;;;;3.87;1.40;;;6.30;55.10;;;;;;5029433;28;20226;-51
2023/12/30 07:18:25;;;;;;;4.37;1.57;;;6.30;33.60;;;;;;5027479;28;20249;-52
2023/12/30 07:20:50;;;;;;;6.33;1.73;;;6.40;1.00;;;;;;5030740;28;20195;-52
2023/12/30 07:23:16;;;;;;;12.43;1.70;;;6.30;1.00;;;;;;5029836;28;20663;-53
2023/12/30 07:25:41;;;;;;;5.50;1.70;;;6.30;1.00;;;;;;5027611;28;20202;-53
2023/12/30 07:28:07;;;;;;;17.50;2.10;;;6.30;1.00;;;;;;5026526;28;20191;-53
2023/12/30 07:30:33;;;;;;;9.37;2.47;;;6.30;1.00;;;;;;5030481;28;20218;-53
2023/12/30 07:32:59;;;;;;;7.03;1.77;;;6.30;1.00;;;;;;5029646;28;20215;-52
2023/12/30 07:35:26;;;;;;;13.03;2.53;;;6.40;1.00;;;;;;5026522;28;20473;-53
2023/12/30 07:37:52;;;;;;;10.13;2.20;;;6.40;1.00;;;;;;5028990;28;20198;-53
2023/12/30 07:40:17;;;;;;;5.83;2.17;;;6.40;1.00;;;;;;5027985;28;20437;-53
2023/12/30 07:42:43;;;;;;;17.63;2.20;;;6.40;1.00;;;;;;5030514;28;20301;-53
2023/12/30 07:45:09;;;;;;;6.37;2.10;;;6.30;1.00;;;;;;5028395;28;20613;-53
2023/12/30 07:47:34;;;;;;;11.37;2.00;;;6.30;1.00;;;;;;5029122;28;20270;-53
2023/12/30 07:50:00;;;;;;;11.67;2.43;;;6.30;66.30;;;;;;5028633;28;20179;-53
2023/12/30 07:52:25;;;;;;;7.10;2.47;;;6.20;99.90;;;;;;5028766;28;20211;-53
2023/12/30 07:54:51;;;;;;;11.60;2.37;;;6.20;99.90;;;;;;5030133;28;20183;-53
2023/12/30 07:57:17;;;;;;;13.23;2.47;;;6.30;99.90;;;;;;5028300;28;20241;-53
2023/12/30 07:59:43;;;;;;;6.77;1.93;;;6.30;99.90;;;;;;5029656;28;20427;-53
2023/12/30 08:02:08;;;;;;;14.40;1.93;;;6.30;6.30;;;;;;5028149;28;20317;-53
2023/12/30 08:04:34;;;;;;;9.57;2.17;;;6.30;1.00;;;;;;5027341;28;20188;-53
2023/12/30 08:06:59;;;;;;;12.57;1.60;;;6.30;1.00;;;;;;5026488;28;20237;-53
2023/12/30 08:09:25;;;;;;;8.43;2.30;;;6.40;1.00;;;;;;5028706;28;20663;-52
2023/12/30 08:11:51;;;;;;;14.33;1.83;;;6.40;99.90;;;;;;5027632;28;20227;-52
2023/12/30 08:14:17;;;;;;;8.57;2.60;;;6.50;99.90;;;;;;5027943;28;20187;-52
2023/12/30 08:16:44;;;;;;;14.10;3.00;;;6.60;99.90;;;;;;5028139;28;20207;-52
2023/12/30 08:19:09;;;;;;;8.73;1.77;;;6.60;99.90;;;;;;5026442;28;20441;-52
2023/12/30 08:21:35;;;;;;;16.00;1.87;;;6.60;99.90;;;;;;5028196;28;20179;-52
2023/12/30 08:24:01;;;;;;;7.90;2.50;;;6.60;99.90;;;;;;5027536;28;20190;-52
2023/12/30 08:26:27;;;;;;;14.83;2.20;;;6.70;99.90;;;;;;5025703;28;20237;-52
2023/12/30 08:28:55;;;;;;;6.03;1.80;;;6.80;99.90;;;;;;5028389;28;20854;-53
2023/12/30 08:31:21;;;;;;;11.33;2.00;;;6.80;99.90;;;;;;5027658;28;20483;-53
2023/12/30 08:33:47;;;;;;;9.00;1.80;;;6.90;99.90;;;;;;5028326;28;20454;-53
2023/12/30 08:36:13;;;;;;;11.97;2.20;;;6.90;99.90;;;;;;5028508;28;20504;-53
2023/12/30 08:38:39;;;;;;;15.00;2.00;;;6.90;99.90;;;;;;5028029;28;20445;-53
2023/12/30 08:41:05;;;;;;;13.07;2.80;;;7.00;99.90;;;;;;5027592;28;20282;-53
2023/12/30 08:43:30;;;;;;;10.93;2.33;;;7.00;99.90;;;;;;5028367;28;20567;-51
2023/12/30 08:45:56;;;;;;;7.23;1.77;;;7.00;99.90;;;;;;5024260;28;20441;-54
2023/12/30 08:48:22;;;;;;;10.73;1.80;;;7.00;99.90;;;;;;5029508;28;20224;-52
2023/12/30 08:50:48;;;;;;;7.93;2.07;;;7.10;99.90;;;;;;5022861;28;20218;-52
2023/12/30 08:53:15;;;;;;;7.07;1.63;;;7.10;99.90;;;;;;5026614;28;20187;-52
2023/12/30 08:55:41;;;;;;;10.33;1.40;;;7.10;99.90;;;;;;5025112;28;20453;-53
2023/12/30 08:58:07;;;;;;;10.03;2.13;;;7.10;99.90;;;;;;5019993;28;20500;-53
2023/12/30 09:00:33;;;;;;;9.83;2.10;;;7.00;99.90;;;;;;5021340;28;20483;-53
2023/12/30 09:02:58;;;;;;;6.63;1.40;;;7.00;99.90;;;;;;5020160;28;20446;-53
2023/12/30 09:05:25;;;;;;;4.70;1.67;;;7.00;99.90;;;;;;5019174;28;20206;-53
2023/12/30 09:07:51;;;;;;;7.50;1.37;;;6.90;99.90;;;;;;5021053;28;20704;-53
2023/12/30 09:10:17;;;;;;;7.03;1.60;;;6.90;99.90;;;;;;5020499;28;20476;-53
2023/12/30 09:12:44;;;;;;;8.13;1.80;;;6.90;99.90;;;;;;5019443;28;20226;-53
2023/12/30 09:15:10;;;;;;;8.97;1.60;;;6.90;99.90;;;;;;5020023;28;20806;-53
2023/12/30 09:17:36;;;;;;;5.53;1.30;;;6.80;99.90;;;;;;5019792;28;20434;-53
2023/12/30 09:20:01;;;;;;;9.40;1.60;;;6.80;99.90;;;;;;5019360;28;20191;-53
2023/12/30 09:22:27;;;;;;;13.13;2.37;;;6.80;99.90;;;;;;5026471;28;20237;-52
2023/12/30 09:24:53;;;;;;;7.13;1.53;;;6.80;99.90;;;;;;5027559;28;20198;-52
2023/12/30 09:27:19;;;;;;;15.57;1.90;;;6.70;99.90;;;;;;5027463;28;20283;-53
2023/12/30 09:29:45;;;;;;;13.60;1.87;;;6.70;99.90;;;;;;5025582;28;20537;-53
2023/12/30 09:32:11;;;;;;;9.33;1.73;;;6.60;99.90;;;;;;5025659;28;20228;-53
2023/12/30 09:34:36;;;;;;;4.73;1.40;;;6.50;99.90;;;;;;5026316;28;20219;-52
2023/12/30 09:37:02;;;;;;;6.20;1.77;;;6.40;1.00;;;;;;5025203;28;20595;-52
2023/12/30 09:39:27;;;;;;;2.53;1.30;;;6.30;1.00;;;;;;5028745;28;20631;-52
2023/12/30 09:41:53;;;;;;;6.23;1.70;;;6.10;82.20;;;;;;5024460;28;20214;-52
2023/12/30 09:44:22;;;;;;;8.93;1.83;;;6.00;1.00;;;;;;5029397;28;20213;-53
2023/12/30 09:46:50;;;;;;;6.70;1.70;;;6.00;23.00;;;;;;5023695;28;20195;-52
2023/12/30 09:49:16;;;;;;;8.87;1.97;;;5.90;99.90;;;;;;5032249;28;20437;-52
2023/12/30 09:51:42;;;;;;;4.90;1.83;;;5.90;99.90;;;;;;5033828;28;20997;-53
2023/12/30 09:54:07;;;;;;;10.20;2.30;;;5.90;1.00;;;;;;5031029;28;20526;-52
2023/12/30 09:56:33;;;;;;;8.40;1.90;;;5.90;65.50;;;;;;5033867;28;20197;-52
2023/12/30 09:59:00;;;;;;;11.43;1.97;;;5.80;1.00;;;;;;5028268;28;20237;-52
2023/12/30 10:01:27;;;;;;;23.20;2.80;;;5.80;99.90;;;;;;5031798;28;20440;-53
2023/12/30 10:03:52;;;;;;;13.27;2.23;;;5.80;99.90;;;;;;5028338;28;21181;-51
2023/12/30 10:06:21;;;;;;;11.33;2.60;;;5.80;1.00;;;;;;5032527;28;20564;-52
2023/12/30 10:08:48;;;;;;;4.37;1.77;;;5.80;99.90;;;;;;5030237;28;20183;-52
2023/12/30 10:11:15;;;;;;;13.80;2.40;;;5.80;99.90;;;;;;5029716;28;20517;-52
2023/12/30 10:13:40;;;;;;;11.53;2.40;;;5.90;1.00;;;;;;5028842;28;20434;-51
2023/12/30 10:16:06;;;;;;;7.37;2.07;;;5.90;99.90;;;;;;5028769;28;20441;-52
2023/12/30 10:18:40;;;;;;;15.63;2.23;;;5.80;1.00;;;;;;5028939;28;20195;-52
2023/12/30 10:21:07;;;;;;;9.73;2.27;;;5.90;1.00;;;;;;5027783;28;20465;-51
2023/12/30 10:23:34;;;;;;;16.40;2.67;;;5.80;99.90;;;;;;5027378;28;20444;-51
2023/12/30 10:26:03;;;;;;;14.13;2.33;;;5.90;1.00;;;;;;5031984;28;20532;-51
2023/12/30 10:28:30;;;;;;;12.57;2.33;;;5.90;1.00;;;;;;5031556;28;20434;-51
2023/12/30 10:31:03;;;;;;;11.17;2.40;;;5.80;1.00;;;;;;5030129;28;20473;-51
2023/12/30 10:33:30;;;;;;;15.33;2.70;;;5.80;56.40;;;;;;5034691;28;20449;-51
2023/12/30 10:35:56;;;;;;;8.80;2.67;;;5.90;1.00;;;;;;5030738;28;20442;-51
2023/12/30 10:38:22;;;;;;;10.50;2.23;;;5.90;1.00;;;;;;5028342;28;20809;-52
2023/12/30 10:40:50;;;;;;;14.30;2.80;;;5.90;1.00;;;;;;5030667;28;20442;-51
2023/12/30 10:43:17;;;;;;;13.07;2.40;;;6.10;99.90;;;;;;5031574;28;20446;-52
2023/12/30 10:45:42;;;;;;;10.13;2.80;;;5.90;1.00;;;;;;5030689;28;20450;-51
2023/12/30 10:48:08;;;;;;;14.87;4.33;;;5.90;99.90;;;;;;5030562;28;20480;-51
2023/12/30 10:50:38;;;;;;;9.80;2.57;;;5.90;1.00;;;;;;5030192;28;20184;-51
2023/12/30 10:53:11;;;;;;;7.40;1.90;;;5.90;99.90;;;;;;5029603;28;20194;-51
2023/12/30 10:55:44;;;;;;;11.40;2.10;;;5.90;1.00;;;;;;5030314;28;20446;-52
2023/12/30 10:58:20;;;;;;;12.07;2.73;;;5.80;99.90;;;;;;5028292;28;20521;-51
2023/12/30 11:00:52;;;;;;;7.30;1.80;;;5.80;17.20;;;;;;5030912;28;20452;-51
2023/12/30 11:03:23;;;;;;;3.80;1.70;;;5.80;99.90;;;;;;5030614;28;20422;-51
2023/12/30 11:06:12;;;;;;;8.90;1.63;;;5.80;99.90;;;;;;5028733;28;20969;-51
2023/12/30 11:08:41;;;;;;;10.40;2.07;;;5.80;99.90;;;;;;5038110;28;21008;-51
2023/12/30 11:11:07;;;;;;;4.93;1.40;;;5.80;1.00;;;;;;5029305;28;20482;-52
2023/12/30 11:13:37;;;;;;;5.13;1.50;;;5.80;1.00;;;;;;5031682;28;20441;-51
2023/12/30 11:16:13;;;;;;;5.80;1.27;;;5.70;38.50;;;;;;5033057;28;20782;-51
2023/12/30 11:18:57;;;;;;;3.17;1.57;;;5.70;99.90;;;;;;5034174;28;20954;-51
2023/12/30 11:21:36;;;;;;;4.60;1.90;;;5.70;1.00;;;;;;5030743;28;20465;-51
2023/12/30 11:24:05;;;;;;;6.40;1.83;;;5.60;99.90;;;;;;5029800;28;20487;-51
2023/12/30 11:26:31;;;;;;;4.13;1.10;;;5.60;99.90;;;;;;5031228;28;20485;-51
2023/12/30 11:29:01;;;;;;;4.47;2.63;;;5.60;1.00;;;;;;5032962;28;20539;-52
2023/12/30 11:31:47;;;;;;;2.57;1.60;;;5.50;1.00;;;;;;5032741;28;20482;-51
2023/12/30 11:34:15;;;;;;;4.00;1.77;;;5.60;99.90;;;;;;5033270;28;20449;-51
2023/12/30 11:36:41;;;;;;;5.33;1.50;;;5.60;99.90;;;;;;5028771;28;20817;-51
2023/12/30 11:39:07;;;;;;;5.10;1.77;;;5.60;1.00;;;;;;5031637;28;20472;-52
2023/12/30 11:41:34;;;;;;;10.93;1.90;;;5.70;1.00;;;;;;5028307;28;20438;-51
2023/12/30 11:44:03;;;;;;;5.00;1.60;;;5.70;99.90;;;;;;5029382;28;20194;-52
2023/12/30 11:46:29;;;;;;;6.53;2.10;;;5.70;99.90;;;;;;5030124;28;20930;-51
2023/12/30 11:48:56;;;;;;;10.23;2.50;;;5.70;99.90;;;;;;5029282;28;20441;-52
2023/12/30 11:51:24;;;;;;;5.67;2.40;;;5.80;99.90;;;;;;5029941;28;21079;-51
2023/12/30 11:53:49;;;;;;;8.97;1.90;;;5.80;99.90;;;;;;5027703;28;20473;-51
2023/12/30 11:56:16;;;;;;;13.20;2.10;;;5.80;99.90;;;;;;5030519;28;20543;-52
2023/12/30 11:58:43;;;;;;;7.10;2.17;;;5.80;99.90;;;;;;5028851;28;20183;-51
2023/12/30 12:01:09;;;;;;;6.80;2.40;;;5.90;1.00;;;;;;5029739;28;20434;-51
2023/12/30 12:03:34;;;;;;;9.63;2.50;;;5.90;99.90;;;;;;5026920;28;20456;-51
2023/12/30 12:06:01;;;;;;;10.37;2.53;;;5.90;99.90;;;;;;5027189;28;20519;-52
2023/12/30 12:08:27;;;;;;;8.40;2.43;;;5.90;99.90;;;;;;5028829;28;20199;-51
2023/12/30 12:10:53;;;;;;;5.70;2.20;;;6.00;99.90;;;;;;5028078;28;20444;-51
2023/12/30 12:13:23;;;;;;;12.07;2.40;;;6.10;99.90;;;;;;5030017;28;20434;-51
2023/12/30 12:15:49;;;;;;;10.43;2.73;;;6.20;99.90;;;;;;5028097;28;20643;-52
2023/12/30 12:18:15;;;;;;;10.03;2.87;;;6.30;99.90;;;;;;5029060;28;20532;-51
2023/12/30 12:20:43;;;;;;;8.57;2.47;;;6.40;99.90;;;;;;5026012;28;20541;-51
2023/12/30 12:23:09;;;;;;;14.97;2.50;;;6.40;1.00;;;;;;5027917;28;20266;-52
2023/12/30 12:25:35;;;;;;;6.70;2.40;;;6.40;99.90;;;;;;5028059;28;20776;-51
2023/12/30 12:28:05;;;;;;;10.67;2.30;;;6.50;99.90;;;;;;5028759;28;21175;-52
2023/12/30 12:30:31;;;;;;;7.30;1.90;;;6.60;99.90;;;;;;5029583;28;20446;-51
2023/12/30 12:32:56;;;;;;;7.83;2.40;;;6.70;99.90;;;;;;5027923;28;20508;-51
2023/12/30 12:35:22;;;;;;;7.53;2.40;;;6.80;99.90;;;;;;5028596;28;20595;-52
2023/12/30 12:37:48;;;;;;;13.20;2.10;;;6.80;1.00;;;;;;5029339;28;20663;-51
2023/12/30 12:40:13;;;;;;;8.77;2.20;;;6.90;99.90;;;;;;5024746;28;20178;-52
2023/12/30 12:42:39;;;;;;;6.70;2.20;;;7.00;1.00;;;;;;5026958;28;20194;-52
2023/12/30 12:45:06;;;;;;;8.17;2.40;;;7.00;99.90;;;;;;5028054;28;20191;-52
2023/12/30 12:47:32;;;;;;;12.33;2.40;;;7.10;1.00;;;;;;5029317;28;20468;-51
2023/12/30 12:49:57;;;;;;;12.40;2.73;;;7.10;99.90;;;;;;5028118;28;20473;-52
2023/12/30 12:52:23;;;;;;;5.20;1.73;;;7.10;99.90;;;;;;5029380;28;20226;-52